Aqua, PA

6:06 PM EDT on October 18, 2019 (GMT -0400)
South Guilford Hills | | Change Station
Active Advisory: Freeze Warning

Elev 640 ft 39.91 °N, 77.60 °W | Updated 11 seconds ago

Clear
Clear
53.8 °F
Feels Like 53.8 °F
N
6.5
Wind Variable Wind from WSW
Gusts 11.9 mph

Today
High -- | Low -- °F
--% Chance of Precip.
Yesterday
High -- | Low -- °F
Precip. -- in
Pressure 30.02 in
Visibility 10.0 miles
Clouds Clear
Dew Point 37 °F
Humidity 53%
Rainfall 0.00 in
Snow Depth Not available.
7:23 AM 6:26 PM
Waning Gibbous, 77% visible
METAR KHGR 182153Z 30013KT 10SM CLR 14/02 A2999 RMK AO2 SLP165 T01390017
Pressure 30.02 in
Visibility 10.0 miles
Clouds Clear
Dew Point 37 °F
Humidity 53%
Rainfall 0.00 in
Snow Depth Not available.
7:23 AM 6:26 PM
Waning Gibbous, 77% visible
METAR KHGR 182153Z 30013KT 10SM CLR 14/02 A2999 RMK AO2 SLP165 T01390017

Get Your Daily Forecast Email!

Thanks for signing up!

Be on the lookout for a verification email in your inbox.

You'll start receiving severe weather alerts in your inbox..

×

10-Day Weather Forecast

Almanac

Astronomy

Oct. 18, 2019 Rise Set
Actual Time
Civil Twilight
Nautical Twilight
Astronomical Twilight
Moon
Length of Visible Light
Length of Day
Tomorrow will be .
, % of the Moon is Illuminated

Today's Extremes

State Highs State Lows

Community

WunderPhotos

Category 6

Welcome to Category 6. This is the collective home for Weather Underground's featured writeups by Dr. Jeff Masters (right), Bob Henson (left), Chris Burt, and other regular contributors.

Nearby

Air Quality

  Air Quality AQ Index Pollutant
Not available.

Snow Depth

Station Depth Elevation

Earthquake Activity

City Distance Mag. Time & Date
Minimum magnitude displayed is 2.5.

Coastal Water Temperatures

Place Temperature

Stations

Nearby Weather Stations

Station Location Temp. Windchill Dew Point Humidity Wind Precip. Elev Updated Type
                   

Watches & Warnings

Freeze Warning
Issued: 2:20 PM EDT Oct. 18, 2019 – National Weather Service

... Freeze warning remains in effect from 2 am to 8 am EDT
Saturday...

* what... temperatures at or just below freezing.

* Where... southern centre, Blair, Huntingdon, Mifflin, Bedford,
Fulton and Franklin counties.

* When... from 2 am to 8 am EDT Saturday.

* Impacts... frost and freeze conditions will kill crops, and
other sensitive vegetation.

* Additional details... valley locations and sheltered areas will
experience the coldest temperatures. This will likely bring
and end to the growing season.

Precautionary/preparedness actions...

Take protective measures now as freezing temperatures could
damage or kill tender plants and vegetation. Potted plants should
be brought inside.

The latest forecast information can be found on the NWS State
College facebook Page and twitter @nwsstatecollege, or on the web
at weather.Gov/ctp.